Latest Coastal Weather Observations for Noarlunga

IDS60701

Issued at 3:31 pm CDT Monday 6 December 2021 (issued every 10 minutes, with the page automatically refreshed every 10 minutes)

About coastal observations | Map of coastal stations | Coastal observations for SA | Marine services | Other Formats
Station Details ID: 023885 Name: NOARLUNGA Lat: -35.16 Lon: 138.51 Height: 55.0 m
Data from the previous 72 hours. | See also: Recent months at Noarlunga
Date/Time
CDT
Wind Sea
Height
m
Swell Vis
km
Cloud Weather Temp
°C
Press
MSL
hPa
Rain since
9am
mm
Dir  Spd
kts
Gust
kts
Height
m
Period
s
Dir
06/03:30pm WSW 9 14 - - - - - - - 20.6 - 0.0
06/03:00pm WSW 8 13 - - - - - - - 21.5 - 0.0
06/02:30pm WSW 7 11 - - - - - - - 22.1 - 0.0
06/02:00pm SW 11 17 - - - - - - - 20.5 - 0.0
06/01:30pm WSW 11 18 - - - - - - - 21.6 - 0.0
06/01:00pm WSW 5 8 - - - - - - - 22.4 - 0.0
06/12:30pm WSW 7 11 - - - - - - - 22.3 - 0.0
06/12:00pm WSW 6 9 - - - - - - - 21.2 - 0.0
06/11:30am W 6 9 - - - - - - - 21.1 - 0.0
06/11:00am W 6 9 - - - - - - - 20.9 - 0.0
06/10:30am WNW 7 11 - - - - - - - 21.3 - 0.0
06/10:00am W 7 9 - - - - - - - 21.8 - 0.0
06/09:30am NW 4 7 - - - - - - - 22.6 - 0.0
06/09:00am WNW 4 7 - - - - - - - 21.7 - 0.0
06/08:30am NNE 2 4 - - - - - - - 21.0 - 0.0
06/08:00am E 2 4 - - - - - - - 20.4 - 0.0
06/07:30am E 2 3 - - - - - - - 18.2 - 0.0
06/07:00am ESE 3 4 - - - - - - - 16.0 - 0.0
06/06:30am E 2 3 - - - - - - - 14.5 - 0.0
06/06:00am ESE 5 7 - - - - - - - 14.0 - 0.0
06/05:30am WSW 2 3 - - - - - - - 14.1 - 0.0
06/05:00am WSW 3 5 - - - - - - - 14.2 - 0.0
06/04:30am ENE 2 3 - - - - - - - 14.2 - 0.0
06/04:00am ESE 3 5 - - - - - - - 14.5 - 0.0
06/03:30am ENE 1 5 - - - - - - - 15.3 - 0.0
06/03:00am E 4 7 - - - - - - - 15.3 - 0.0
06/02:30am ESE 9 14 - - - - - - - 15.2 - 0.0
06/02:00am ESE 10 16 - - - - - - - 15.1 - 0.0
06/01:30am E 10 15 - - - - - - - 15.2 - 0.0
06/01:00am E 10 15 - - - - - - - 15.0 - 0.0
06/12:30am E 11 16 - - - - - - - 14.9 - 0.0
06/12:00am E 12 18 - - - - - - - 15.0 - 0.0
 
Date/Time
CDT
Wind Sea
Height
m
Swell Vis
km
Cloud Weather Temp
°C
Press
MSL
hPa
Rain since
9am
mm
Dir  Spd
kts
Gust
kts
Height
m
Period
s
Dir
05/11:30pm ESE 12 18 - - - - - - - 15.0 - 0.0
05/11:00pm ESE 11 17 - - - - - - - 14.9 - 0.0
05/10:30pm ESE 14 21 - - - - - - - 15.1 - 0.0
05/10:00pm ESE 12 18 - - - - - - - 15.2 - 0.0
05/09:30pm ESE 10 17 - - - - - - - 15.5 - 0.0
05/09:00pm ESE 9 15 - - - - - - - 15.9 - 0.0
05/08:30pm ESE 10 16 - - - - - - - 16.3 - 0.0
05/08:00pm SE 11 16 - - - - - - - 17.2 - 0.0
05/07:30pm SE 11 16 - - - - - - - 18.1 - 0.0
05/07:00pm SE 10 15 - - - - - - - 19.3 - 0.0
05/06:30pm SSE 12 16 - - - - - - - 20.2 - 0.0
05/06:00pm SSE 12 18 - - - - - - - 21.2 - 0.0
05/05:30pm SE 13 18 - - - - - - - 21.0 - 0.0
05/05:00pm SE 12 16 - - - - - - - 22.0 - 0.0
05/04:30pm SW 6 11 - - - - - - - 22.2 - 0.0
05/04:00pm SW 6 10 - - - - - - - 21.6 - 0.0
05/03:30pm SW 8 12 - - - - - - - 21.6 - 0.0
05/03:00pm SW 8 13 - - - - - - - 20.5 - 0.0
05/02:30pm WSW 10 16 - - - - - - - 20.4 - 0.0
05/02:00pm W 9 14 - - - - - - - 21.4 - 0.0
05/01:30pm W 7 11 - - - - - - - 22.0 - 0.0
05/01:00pm WNW 8 12 - - - - - - - 21.4 - 0.0
05/12:30pm WSW 7 13 - - - - - - - 22.4 - 0.0
05/12:00pm W 7 10 - - - - - - - 20.9 - 0.0
05/11:30am WNW 5 7 - - - - - - - 20.8 - 0.0
05/11:00am WNW 5 7 - - - - - - - 19.3 - 0.0
05/10:30am SE 3 8 - - - - - - - 20.2 - 0.0
05/10:00am ENE 5 9 - - - - - - - 19.9 - 0.0
05/09:30am ESE 9 13 - - - - - - - 19.1 - 0.0
05/09:00am E 8 13 - - - - - - - 18.4 - 0.0
05/08:30am E 9 14 - - - - - - - 16.8 - 0.0
05/08:00am E 8 14 - - - - - - - 15.7 - 0.0
05/07:30am ESE 11 17 - - - - - - - 14.9 - 0.0
05/07:00am ESE 10 14 - - - - - - - 14.1 - 0.0
05/06:30am ESE 10 15 - - - - - - - 13.4 - 0.0
05/06:00am ESE 8 13 - - - - - - - 12.9 - 0.0
05/05:30am ESE 8 12 - - - - - - - 13.0 - 0.0
05/05:00am ESE 7 11 - - - - - - - 13.4 - 0.0
05/04:30am SE 5 9 - - - - - - - 13.4 - 0.0
05/04:00am SE 6 11 - - - - - - - 13.1 - 0.0
05/03:30am SE 6 10 - - - - - - - 13.4 - 0.0
05/03:00am SE 7 12 - - - - - - - 13.5 - 0.0
05/02:30am SE 4 8 - - - - - - - 13.0 - 0.0
05/02:00am SSE 5 10 - - - - - - - 12.9 - 0.0
05/01:30am SE 5 9 - - - - - - - 13.0 - 0.0
05/01:00am SSE 8 11 - - - - - - - 12.9 - 0.0
05/12:30am SE 5 7 - - - - - - - 12.8 - 0.0
05/12:00am SSE 5 8 - - - - - - - 13.4 - 0.0
 
Date/Time
CDT
Wind Sea
Height
m
Swell Vis
km
Cloud Weather Temp
°C
Press
MSL
hPa
Rain since
9am
mm
Dir  Spd
kts
Gust
kts
Height
m
Period
s
Dir
04/11:30pm CALM 0 0 - - - - - - - 13.3 - 0.0
04/11:00pm CALM 0 0 - - - - - - - 13.3 - 0.0
04/10:30pm S 3 5 - - - - - - - 13.4 - 0.0
04/10:00pm SSE 4 8 - - - - - - - 13.5 - 0.0
04/09:30pm SSE 5 7 - - - - - - - 13.9 - 0.0
04/09:00pm SSE 6 10 - - - - - - - 14.4 - 0.0
04/08:30pm SSE 10 14 - - - - - - - 15.1 - 0.0
04/08:00pm SSE 11 16 - - - - - - - 15.9 - 0.0
04/07:30pm SSE 8 12 - - - - - - - 17.3 - 0.0
04/07:00pm S 7 10 - - - - - - - 18.1 - 0.0
04/06:30pm SSE 10 15 - - - - - - - 18.2 - 0.0
04/06:00pm SSE 11 15 - - - - - - - 19.2 - 0.0
04/05:30pm SSE 9 15 - - - - - - - 20.9 - 0.0
04/05:00pm SSE 9 17 - - - - - - - 20.8 - 0.0
04/04:30pm SSE 10 14 - - - - - - - 20.2 - 0.0
04/04:00pm S 9 19 - - - - - - - 21.5 - 0.0
04/03:30pm WSW 10 17 - - - - - - - 20.9 - 0.0
04/03:00pm SW 8 14 - - - - - - - 20.7 - 0.0
04/02:30pm SW 10 18 - - - - - - - 20.4 - 0.0
04/02:00pm SSE 8 13 - - - - - - - 21.7 - 0.0
04/01:30pm WSW 8 13 - - - - - - - 20.1 - 0.0
04/01:00pm SW 6 11 - - - - - - - 19.5 - 0.0
04/12:30pm SSE 6 10 - - - - - - - 20.2 - 0.0
04/12:00pm SSE 10 15 - - - - - - - 19.0 - 0.0
04/11:30am S 8 13 - - - - - - - 19.0 - 0.0
04/11:00am S 6 9 - - - - - - - 20.0 - 0.0
04/10:30am SSE 9 14 - - - - - - - 18.8 - 0.0
04/10:00am SSE 7 10 - - - - - - - 16.7 - 0.0
04/09:30am S 6 10 - - - - - - - 16.0 - 0.0
04/09:00am SSW 5 9 - - - - - - - 16.2 - 0.0
04/08:30am S 4 6 - - - - - - - 15.8 - 0.0
04/08:00am SSW 4 7 - - - - - - - 15.4 - 0.0
04/07:30am SE 3 4 - - - - - - - 14.7 - 0.0
04/07:00am SE 3 4 - - - - - - - 12.2 - 0.0
04/06:30am SE 2 3 - - - - - - - 10.9 - 0.0
04/06:00am SE 1 3 - - - - - - - 10.0 - 0.0
04/05:30am SE 3 4 - - - - - - - 9.7 - 0.0
04/05:00am SE 3 4 - - - - - - - 9.6 - 0.0
04/04:30am SSE 4 5 - - - - - - - 9.6 - 0.0
04/04:00am SE 5 7 - - - - - - - 10.0 - 0.0
04/03:30am SE 5 7 - - - - - - - 10.0 - 0.0
04/03:00am SE 3 4 - - - - - - - 9.7 - 0.0
04/02:30am SE 1 3 - - - - - - - 9.9 - 0.0
04/02:00am SE 4 5 - - - - - - - 10.4 - 0.0
04/01:30am SSE 2 3 - - - - - - - 10.6 - 0.0
04/01:00am SE 4 5 - - - - - - - 11.2 - 0.0
04/12:30am SSE 3 6 - - - - - - - 11.7 - 0.0
04/12:00am SSE 6 9 - - - - - - - 12.3 - 0.0
 
Date/Time
CDT
Wind Sea
Height
m
Swell Vis
km
Cloud Weather Temp
°C
Press
MSL
hPa
Rain since
9am
mm
Dir  Spd
kts
Gust
kts
Height
m
Period
s
Dir
03/11:30pm SSE 7 9 - - - - - - - 12.6 - 0.0
03/11:00pm SSE 7 11 - - - - - - - 12.9 - 0.0
03/10:30pm SSE 7 9 - - - - - - - 13.0 - 0.0
03/10:00pm SSE 7 8 - - - - - - - 13.4 - 0.0
03/09:30pm SE 8 11 - - - - - - - 13.8 - 0.0
03/09:00pm SE 8 10 - - - - - - - 14.4 - 0.0
03/08:30pm SSE 8 11 - - - - - - - 14.9 - 0.0
03/08:00pm SSE 8 11 - - - - - - - 16.1 - 0.0
03/07:30pm SSE 8 11 - - - - - - - 17.5 - 0.0
03/07:00pm SE 11 16 - - - - - - - 18.0 - 0.0
03/06:30pm SSE 10 15 - - - - - - - 18.9 - 0.0
03/06:00pm SSE 10 16 - - - - - - - 20.3 - 0.0
03/05:30pm SSE 10 15 - - - - - - - 20.6 - 0.0
03/05:00pm SW 11 18 - - - - - - - 21.3 - 0.0
03/04:30pm SW 11 17 - - - - - - - 20.3 - 0.0
03/04:00pm WSW 8 16 - - - - - - - 20.8 - 0.0

Other formats

Comma delimited format used in spreadsheet applications
http://www.bom.gov.au/fwo/IDS60701/IDS60701.94808.axf

JavaScript Object Notation format (JSON) in row-major order
http://www.bom.gov.au/fwo/IDS60701/IDS60701.94808.json

Data quality

Most of these data are generated automatically and are frequently updated. Quality checks on data are not normally performed. It is possible for incorrect values to appear. Refer to information at About Latest Weather Observations and please check the disclaimer before using these data.